Time;durP1;ratioP1;P1;durP2;ratioP2;P2;SDS_P1;SDS_P2;PMS_P1;PMS_P2;Temp;Humidity;BMP_temperature;BMP_pressure;BME280_temperature;BME280_humidity;BME280_pressure;Samples;Min_cycle;Max_cycle;Signal;HPM_P1;HPM_P2
2022/03/14 00:01:33;;;;;;;12.93;9.70;;;;;;;8.14;29.92;101613.91;5061894;28;20416;-67
2022/03/14 00:03:59;;;;;;;9.70;8.67;;;;;;;8.07;29.82;101611.94;5062019;28;20628;-67
2022/03/14 00:06:25;;;;;;;13.17;9.60;;;;;;;8.19;29.89;101620.16;5061462;28;20169;-66
2022/03/14 00:08:54;;;;;;;10.37;9.23;;;;;;;8.02;30.20;101623.88;5061321;28;20481;-67
2022/03/14 00:11:19;;;;;;;10.07;8.93;;;;;;;7.81;30.67;101618.84;5061852;28;20404;-66
2022/03/14 00:13:46;;;;;;;10.27;9.00;;;;;;;8.07;30.15;101618.00;5061192;28;20463;-67
2022/03/14 00:16:22;;;;;;;13.10;9.27;;;;;;;7.87;30.64;101625.09;5061226;28;20451;-67
2022/03/14 00:18:50;;;;;;;13.17;9.77;;;;;;;7.88;30.62;101615.63;5061319;28;20753;-68
2022/03/14 00:21:16;;;;;;;12.73;9.57;;;;;;;7.88;30.77;101615.63;5061349;28;20424;-68
2022/03/14 00:23:43;;;;;;;10.83;9.73;;;;;;;7.90;31.13;101617.44;5061031;28;20481;-67
2022/03/14 00:26:08;;;;;;;12.20;9.60;;;;;;;8.12;30.63;101618.19;5060968;28;20431;-67
2022/03/14 00:28:33;;;;;;;11.27;9.30;;;;;;;7.63;30.76;101624.25;5061200;28;20409;-67
2022/03/14 00:30:59;;;;;;;11.70;9.33;;;;;;;7.73;31.12;101624.63;5061019;28;20536;-67
2022/03/14 00:33:24;;;;;;;10.57;9.07;;;;;;;7.37;31.81;101638.06;5060942;28;20197;-67
2022/03/14 00:35:50;;;;;;;14.30;8.83;;;;;;;7.57;31.37;101622.31;5061309;28;20177;-66
2022/03/14 00:38:16;;;;;;;9.97;8.97;;;;;;;7.38;31.88;101632.00;5060551;28;20178;-67
2022/03/14 00:40:41;;;;;;;12.40;8.47;;;;;;;7.30;31.97;101629.97;5060601;28;20239;-66
2022/03/14 00:43:07;;;;;;;9.60;8.50;;;;;;;7.16;32.12;101635.53;5061294;28;20173;-67
2022/03/14 00:45:34;;;;;;;9.33;8.40;;;;;;;7.28;31.99;101631.63;5060756;28;20170;-67
2022/03/14 00:47:59;;;;;;;11.93;9.90;;;;;;;7.21;32.13;101633.09;5060479;28;20688;-67
2022/03/14 00:50:25;;;;;;;9.40;8.50;;;;;;;6.77;32.75;101635.75;5061050;28;20412;-68
2022/03/14 00:52:50;;;;;;;12.03;9.70;;;;;;;7.39;31.91;101632.91;5060458;28;20209;-66
2022/03/14 00:55:19;;;;;;;9.37;8.40;;;;;;;6.97;32.55;101631.34;5060532;28;20201;-67
2022/03/14 00:57:44;;;;;;;9.90;8.67;;;;;;;6.72;32.80;101630.41;5060799;28;20272;-67
2022/03/14 01:00:10;;;;;;;12.77;9.30;;;;;;;7.16;32.13;101630.34;5060452;28;20840;-67
2022/03/14 01:02:35;;;;;;;12.43;9.53;;;;;;;7.18;32.10;101630.38;5060397;28;20177;-66
2022/03/14 01:05:01;;;;;;;11.27;8.80;;;;;;;7.09;32.14;101638.72;5060911;28;20412;-66
2022/03/14 01:07:26;;;;;;;11.67;9.20;;;;;;;7.17;32.15;101636.41;5060201;28;20192;-66
2022/03/14 01:09:51;;;;;;;13.17;10.10;;;;;;;7.41;32.07;101637.34;5060421;28;20177;-67
2022/03/14 01:12:17;;;;;;;11.27;9.10;;;;;;;7.05;32.43;101636.84;5060816;28;20444;-67
2022/03/14 01:14:43;;;;;;;10.10;8.93;;;;;;;7.11;32.21;101652.59;5060117;28;20205;-67
2022/03/14 01:17:10;;;;;;;9.87;8.57;;;;;;;7.40;32.13;101645.94;5060156;28;20170;-68
2022/03/14 01:19:36;;;;;;;10.97;9.73;;;;;;;7.28;32.23;101649.78;5060443;28;20412;-67
2022/03/14 01:22:01;;;;;;;11.40;9.73;;;;;;;7.24;32.32;101651.38;5060027;28;20451;-67
2022/03/14 01:24:27;;;;;;;11.57;9.10;;;;;;;6.92;32.92;101658.78;5040174;28;20701;-68
2022/03/14 01:26:52;;;;;;;10.33;9.17;;;;;;;6.98;32.54;101652.97;5040477;28;20174;-67
2022/03/14 01:29:18;;;;;;;11.67;9.50;;;;;;;7.35;32.40;101649.19;5039924;28;20493;-67
2022/03/14 01:31:43;;;;;;;10.40;9.30;;;;;;;7.26;32.63;101657.50;5039929;28;20193;-68
2022/03/14 01:34:09;;;;;;;10.47;9.30;;;;;;;6.67;33.24;101651.72;5040256;28;20232;-66
2022/03/14 01:36:35;;;;;;;10.83;9.77;;;;;;;7.15;32.83;101654.50;5039983;28;20217;-67
2022/03/14 01:39:00;;;;;;;10.07;9.10;;;;;;;6.83;33.23;101659.31;5039701;28;20713;-68
2022/03/14 01:41:27;;;;;;;10.43;9.33;;;;;;;7.08;32.74;101662.88;5040137;28;20473;-66
2022/03/14 01:43:53;;;;;;;11.67;9.30;;;;;;;6.79;33.14;101657.41;5039671;28;20219;-67
2022/03/14 01:46:18;;;;;;;12.20;9.50;;;;;;;6.92;33.04;101653.59;5039518;28;20480;-66
2022/03/14 01:48:44;;;;;;;10.50;9.40;;;;;;;6.90;33.63;101663.00;5039999;28;20170;-67
2022/03/14 01:51:10;;;;;;;12.17;10.00;;;;;;;6.82;33.25;101654.97;5039347;28;20477;-67
2022/03/14 01:53:36;;;;;;;11.80;9.60;;;;;;;6.84;33.13;101665.38;5039487;28;20471;-68
2022/03/14 01:56:04;;;;;;;12.00;9.13;;;;;;;6.76;33.38;101664.19;5038693;28;20177;-67
2022/03/14 01:58:30;;;;;;;13.70;9.90;;;;;;;6.71;33.29;101661.41;5039347;28;20413;-66
2022/03/14 02:00:55;;;;;;;13.20;10.57;;;;;;;6.76;33.30;101666.78;5039511;28;20810;-68
2022/03/14 02:03:20;;;;;;;12.00;9.20;;;;;;;6.97;33.12;101652.09;5039659;28;20162;-67
2022/03/14 02:05:47;;;;;;;11.13;9.30;;;;;;;6.71;33.31;101659.72;5039411;28;20166;-67
2022/03/14 02:08:12;;;;;;;10.77;9.30;;;;;;;6.76;33.66;101656.41;5038428;28;20435;-68
2022/03/14 02:10:38;;;;;;;10.83;8.70;;;;;;;6.53;33.86;101661.53;5039612;28;20409;-68
2022/03/14 02:13:12;;;;;;;12.20;9.40;;;;;;;6.73;34.05;101652.88;5039178;28;20232;-66
2022/03/14 02:15:38;;;;;;;10.50;8.97;;;;;;;6.71;33.74;101658.81;5039297;28;20441;-67
2022/03/14 02:18:04;;;;;;;11.07;9.50;;;;;;;6.49;34.11;101659.66;5038882;28;20417;-66
2022/03/14 02:20:29;;;;;;;11.83;10.00;;;;;;;6.34;34.43;101665.09;5039198;28;20423;-66
2022/03/14 02:22:55;;;;;;;11.80;9.83;;;;;;;6.19;34.40;101665.31;5046350;28;20213;-66
2022/03/14 02:25:20;;;;;;;11.67;9.80;;;;;;;6.64;34.05;101660.25;5058101;28;20577;-67
2022/03/14 02:27:45;;;;;;;11.20;9.13;;;;;;;6.58;33.92;101665.22;5058929;28;20228;-68
2022/03/14 02:30:11;;;;;;;13.17;10.07;;;;;;;6.36;34.31;101661.75;5058885;28;20550;-67
2022/03/14 02:32:41;;;;;;;14.50;10.37;;;;;;;6.50;34.13;101661.44;5058784;28;20256;-66
2022/03/14 02:35:07;;;;;;;11.00;9.90;;;;;;;6.29;34.68;101674.34;5059064;28;20197;-67
2022/03/14 02:37:33;;;;;;;12.70;10.07;;;;;;;6.33;34.45;101674.56;5057809;28;20425;-66
2022/03/14 02:39:58;;;;;;;14.43;10.63;;;;;;;6.34;34.64;101680.63;5058554;28;20439;-66
2022/03/14 02:42:23;;;;;;;12.43;10.30;;;;;;;6.56;34.39;101672.94;5059257;28;20170;-67
2022/03/14 02:44:48;;;;;;;16.47;10.63;;;;;;;6.25;35.03;101675.91;5058542;28;20184;-67
2022/03/14 02:47:14;;;;;;;13.37;9.50;;;;;;;6.34;34.57;101672.84;5058362;28;20188;-67
2022/03/14 02:49:39;;;;;;;11.90;9.90;;;;;;;6.47;34.60;101669.97;5058783;28;20260;-66
2022/03/14 02:52:05;;;;;;;12.67;10.07;;;;;;;6.49;34.59;101677.78;5058328;28;20551;-66
2022/03/14 02:54:31;;;;;;;13.90;10.27;;;;;;;6.42;34.74;101675.78;5058215;28;20220;-67
2022/03/14 02:56:59;;;;;;;11.60;10.40;;;;;;;6.07;35.53;101694.16;5058673;28;20477;-66
2022/03/14 02:59:24;;;;;;;13.03;10.17;;;;;;;6.36;34.97;101666.91;5058288;28;20165;-66
2022/03/14 03:01:50;;;;;;;7.37;6.63;;;;;;;11.46;51.61;101656.81;5058168;28;20688;-53
2022/03/14 03:04:15;;;;;;;8.73;7.10;;;;;;;12.94;47.36;101657.69;5058825;28;20180;-54
2022/03/14 03:06:40;;;;;;;10.53;8.60;;;;;;;12.72;41.14;101654.75;5058083;28;20178;-53
2022/03/14 03:09:06;;;;;;;9.57;8.20;;;;;;;12.91;39.70;101655.91;5057345;28;20162;-55
2022/03/14 03:11:32;;;;;;;12.00;9.03;;;;;;;11.91;41.17;101659.44;5058468;28;20458;-55
2022/03/14 03:13:59;;;;;;;13.00;9.30;;;;;;;12.17;38.57;101659.06;5058083;28;20201;-53
2022/03/14 03:16:25;;;;;;;13.03;9.87;;;;;;;13.05;36.52;101661.31;5058097;28;20417;-54
2022/03/14 03:18:50;;;;;;;13.07;9.70;;;;;;;12.66;35.21;101653.75;5058524;28;20723;-55
2022/03/14 03:21:16;;;;;;;10.13;9.00;;;;;;;12.90;34.77;101661.09;5058125;28;20416;-54
2022/03/14 03:23:42;;;;;;;11.70;9.60;;;;;;;12.69;35.60;101666.88;5057946;28;20228;-54
2022/03/14 03:26:08;;;;;;;11.33;9.53;;;;;;;8.23;31.55;101678.28;5058627;28;20400;-67
2022/03/14 03:28:36;;;;;;;14.17;10.90;;;;;;;7.65;32.89;101688.34;5057800;28;20424;-67
2022/03/14 03:31:07;;;;;;;11.00;9.80;;;;;;;7.23;33.77;101696.28;5057898;28;20188;-67
2022/03/14 03:33:32;;;;;;;13.00;10.83;;;;;;;6.73;34.15;101693.47;5058359;28;20458;-67
2022/03/14 03:35:58;;;;;;;13.00;10.13;;;;;;;6.43;35.58;101698.25;5057244;28;20507;-67
2022/03/14 03:38:23;;;;;;;13.00;10.50;;;;;;;6.66;35.15;101694.91;5057088;28;20174;-67
2022/03/14 03:40:49;;;;;;;11.93;9.70;;;;;;;6.43;35.81;101703.41;5058088;28;20538;-67
2022/03/14 03:43:14;;;;;;;11.40;10.20;;;;;;;6.56;35.66;101705.72;5057966;28;20211;-66
2022/03/14 03:45:40;;;;;;;11.63;9.47;;;;;;;6.15;36.58;101712.63;5057029;28;20173;-66
2022/03/14 03:48:05;;;;;;;12.97;10.80;;;;;;;6.48;36.09;101717.44;5058004;28;20179;-66
2022/03/14 03:50:31;;;;;;;13.27;10.90;;;;;;;6.38;36.36;101718.78;5057861;28;20179;-66
2022/03/14 03:52:56;;;;;;;14.30;10.53;;;;;;;6.28;36.37;101719.19;5057725;28;20174;-65
2022/03/14 03:55:22;;;;;;;14.30;10.67;;;;;;;6.13;36.47;101724.59;5057964;28;20691;-66
2022/03/14 03:57:48;;;;;;;12.97;11.20;;;;;;;6.00;36.74;101718.88;5057692;28;20476;-67
2022/03/14 04:00:14;;;;;;;13.60;10.57;;;;;;;5.72;36.45;101717.63;5057635;28;20169;-66
2022/03/14 04:02:42;;;;;;;12.80;10.00;;;;;;;6.03;36.25;101726.78;5057479;28;20685;-66
2022/03/14 04:05:08;;;;;;;12.60;10.20;;;;;;;5.91;36.40;101728.78;5057584;28;20485;-65
2022/03/14 04:07:34;;;;;;;11.83;10.30;;;;;;;5.69;36.65;101730.41;5057432;28;20700;-65
2022/03/14 04:10:00;;;;;;;11.80;10.17;;;;;;;5.66;36.35;101727.69;5057989;28;20423;-65
2022/03/14 04:12:26;;;;;;;11.73;10.10;;;;;;;6.14;35.94;101732.41;5057525;28;20216;-65
2022/03/14 04:14:54;;;;;;;13.53;9.67;;;;;;;5.88;36.19;101718.31;5057446;28;20510;-65
2022/03/14 04:17:19;;;;;;;13.40;10.37;;;;;;;5.67;36.30;101719.13;5058013;28;20392;-66
2022/03/14 04:19:45;;;;;;;14.03;10.77;;;;;;;6.02;36.02;101721.53;5059571;28;20414;-66
2022/03/14 04:22:13;;;;;;;11.67;10.47;;;;;;;5.96;36.22;101722.13;5061035;28;20249;-66
2022/03/14 04:24:38;;;;;;;12.90;10.33;;;;;;;6.03;36.63;101731.94;5061574;28;20520;-65
2022/03/14 04:27:04;;;;;;;14.80;10.80;;;;;;;5.78;37.17;101729.06;5061129;28;20451;-66
2022/03/14 04:29:30;;;;;;;13.50;10.00;;;;;;;5.78;36.89;101731.63;5060970;28;20170;-66
2022/03/14 04:31:55;;;;;;;12.97;10.57;;;;;;;5.88;37.43;101729.53;5061608;28;20172;-66
2022/03/14 04:34:21;;;;;;;12.03;10.80;;;;;;;5.52;37.65;101733.91;5060957;28;20732;-66
2022/03/14 04:36:50;;;;;;;16.57;10.90;;;;;;;5.59;37.50;101736.00;5061026;28;20170;-66
2022/03/14 04:39:18;;;;;;;13.10;10.87;;;;;;;5.50;37.67;101731.28;5061077;28;20308;-67
2022/03/14 04:41:44;;;;;;;13.97;9.83;;;;;;;5.39;37.96;101746.28;5060769;28;20412;-67
2022/03/14 04:44:09;;;;;;;11.97;10.47;;;;;;;5.34;38.33;101736.53;5060607;28;20420;-66
2022/03/14 04:46:35;;;;;;;14.17;10.97;;;;;;;5.68;37.89;101730.34;5061174;28;20177;-67
2022/03/14 04:49:00;;;;;;;13.60;11.00;;;;;;;5.42;38.42;101737.78;5060687;28;20193;-66
2022/03/14 04:51:25;;;;;;;12.00;10.23;;;;;;;5.39;38.05;101746.28;5060076;28;20177;-66
2022/03/14 04:53:51;;;;;;;14.30;11.10;;;;;;;5.43;37.85;101741.28;5061227;28;20589;-66
2022/03/14 04:56:16;;;;;;;15.30;11.33;;;;;;;5.53;37.57;101746.06;5060671;28;20169;-67
2022/03/14 04:58:41;;;;;;;15.60;10.60;;;;;;;5.37;37.66;101750.50;5060468;28;20197;-65
2022/03/14 05:01:07;;;;;;;14.70;10.60;;;;;;;5.40;37.84;101740.31;5061058;28;20162;-66
2022/03/14 05:03:34;;;;;;;13.50;11.80;;;;;;;5.77;36.97;101750.59;5060465;28;20554;-65
2022/03/14 05:05:59;;;;;;;12.80;10.60;;;;;;;5.42;37.58;101747.25;5060400;28;20457;-65
2022/03/14 05:08:24;;;;;;;17.70;10.93;;;;;;;5.52;37.35;101755.53;5060722;28;20404;-66
2022/03/14 05:10:50;;;;;;;14.00;11.13;;;;;;;5.69;37.38;101752.81;5060290;28;20174;-66
2022/03/14 05:13:15;;;;;;;14.30;11.00;;;;;;;5.78;36.92;101750.66;5060202;28;20172;-66
2022/03/14 05:15:40;;;;;;;16.90;12.17;;;;;;;5.43;37.36;101756.78;5060762;28;20525;-67
2022/03/14 05:18:06;;;;;;;16.17;11.20;;;;;;;5.21;37.52;101772.16;5060168;28;20173;-66
2022/03/14 05:20:31;;;;;;;11.87;10.67;;;;;;;5.69;37.33;101763.16;5060359;28;20433;-67
2022/03/14 05:22:57;;;;;;;11.70;10.50;;;;;;;5.67;37.04;101760.53;5060201;28;20225;-66
2022/03/14 05:25:23;;;;;;;15.00;11.20;;;;;;;5.39;37.70;101764.38;5060128;28;20169;-66
2022/03/14 05:27:50;;;;;;;14.87;11.60;;;;;;;4.98;37.99;101770.16;5059315;28;20438;-66
2022/03/14 05:30:16;;;;;;;16.67;11.03;;;;;;;5.25;37.59;101769.72;5059392;28;20166;-66
2022/03/14 05:32:42;;;;;;;12.67;10.63;;;;;;;5.42;37.54;101773.13;5060030;28;20412;-66
2022/03/14 05:35:15;;;;;;;13.93;11.10;;;;;;;5.59;37.55;101776.47;5060361;28;20284;-66
2022/03/14 05:37:42;;;;;;;14.30;12.57;;;;;;;5.36;37.41;101774.59;5058986;28;20409;-66
2022/03/14 05:40:08;;;;;;;15.93;10.90;;;;;;;5.23;37.85;101772.22;5058836;28;20432;-67
2022/03/14 05:42:34;;;;;;;16.20;11.20;;;;;;;5.23;37.95;101767.94;5059699;28;20423;-66
2022/03/14 05:44:59;;;;;;;13.83;11.77;;;;;;;5.45;37.05;101778.44;5059698;28;20676;-66
2022/03/14 05:47:24;;;;;;;16.37;12.50;;;;;;;5.19;38.33;101780.66;5059772;28;20205;-66
2022/03/14 05:49:50;;;;;;;17.10;12.00;;;;;;;5.10;38.13;101782.78;5059701;28;20177;-66
2022/03/14 05:52:16;;;;;;;14.30;11.50;;;;;;;5.14;37.93;101775.28;5059642;28;20188;-67
2022/03/14 05:54:41;;;;;;;15.10;12.17;;;;;;;5.52;37.13;101780.47;5059921;28;20186;-66
2022/03/14 05:57:06;;;;;;;17.60;12.13;;;;;;;5.57;37.38;101785.09;5059381;28;20222;-67
2022/03/14 05:59:32;;;;;;;17.20;11.30;;;;;;;5.46;37.06;101780.22;5059290;28;20169;-65
2022/03/14 06:01:57;;;;;;;17.30;12.37;;;;;;;5.13;37.56;101780.34;5059718;28;20165;-67
2022/03/14 06:04:23;;;;;;;17.67;11.70;;;;;;;5.53;37.69;101787.44;5059263;28;20174;-67
2022/03/14 06:06:48;;;;;;;15.60;12.20;;;;;;;5.48;37.48;101784.63;5059557;28;20173;-66
2022/03/14 06:09:13;;;;;;;18.43;12.30;;;;;;;5.52;37.58;101788.25;5059499;28;20292;-66
2022/03/14 06:11:39;;;;;;;15.53;12.27;;;;;;;5.70;36.88;101788.22;5058971;28;20169;-66
2022/03/14 06:14:05;;;;;;;18.27;12.87;;;;;;;5.58;37.17;101785.94;5058982;28;20472;-66
2022/03/14 06:16:30;;;;;;;14.13;11.43;;;;;;;5.47;37.78;101790.63;5059717;28;20531;-66
2022/03/14 06:18:56;;;;;;;15.60;13.03;;;;;;;5.66;38.10;101782.03;5058159;28;20193;-66
2022/03/14 06:21:21;;;;;;;19.00;12.87;;;;;;;5.49;37.94;101793.28;5058981;28;20299;-66
2022/03/14 06:23:46;;;;;;;17.30;12.87;;;;;;;5.47;37.99;101794.91;5058085;28;20221;-66
2022/03/14 06:26:12;;;;;;;19.70;13.93;;;;;;;5.55;37.92;101794.44;5058802;28;20192;-65
2022/03/14 06:28:37;;;;;;;18.07;12.30;;;;;;;5.83;37.96;101802.59;5059029;28;20257;-66
2022/03/14 06:31:03;;;;;;;25.97;12.50;;;;;;;5.87;38.10;101796.75;5059013;28;20184;-66
2022/03/14 06:33:28;;;;;;;17.90;12.87;;;;;;;5.59;37.38;101799.75;5058656;28;20209;-66
2022/03/14 06:35:53;;;;;;;15.87;12.23;;;;;;;6.14;36.79;101799.75;5059230;28;20479;-65
2022/03/14 06:38:19;;;;;;;24.37;11.97;;;;;;;7.07;34.66;101799.38;5058600;28;20444;-65
2022/03/14 06:40:44;;;;;;;15.43;13.50;;;;;;;9.33;30.62;101781.56;5058500;28;20223;-65
2022/03/14 06:43:13;;;;;;;14.93;11.30;;;;;;;9.20;29.97;101789.81;5058923;28;20200;-65
2022/03/14 06:45:41;;;;;;;13.40;11.70;;;;;;;7.83;31.65;101804.09;5058406;28;20193;-66
2022/03/14 06:48:06;;;;;;;18.80;12.37;;;;;;;7.06;33.05;101808.00;5058320;28;20523;-65
2022/03/14 06:50:32;;;;;;;13.83;12.30;;;;;;;7.14;32.94;101810.03;5058925;28;20735;-66
2022/03/14 06:52:59;;;;;;;15.50;12.40;;;;;;;6.78;33.42;101805.97;5058315;28;20543;-66
2022/03/14 06:55:24;;;;;;;14.43;12.47;;;;;;;6.77;33.95;101811.09;5058027;28;20463;-65
2022/03/14 06:57:50;;;;;;;15.80;12.80;;;;;;;6.92;33.85;101811.72;5058955;28;20585;-67
2022/03/14 07:00:16;;;;;;;16.23;12.83;;;;;;;7.55;33.04;101818.56;5058159;28;20257;-67
2022/03/14 07:02:42;;;;;;;14.17;12.67;;;;;;;9.68;29.76;101807.81;5057984;28;20417;-66
2022/03/14 07:05:13;;;;;;;17.83;12.87;;;;;;;11.56;27.08;101803.25;5058763;28;20656;-66
2022/03/14 07:07:38;;;;;;;15.47;12.30;;;;;;;13.05;25.15;101794.81;5058058;28;20165;-65
2022/03/14 07:10:04;;;;;;;16.10;12.20;;;;;;;12.13;25.19;101813.19;5058183;28;20409;-67
2022/03/14 07:12:29;;;;;;;14.87;12.70;;;;;;;12.06;25.31;101816.53;5058502;28;20456;-65
2022/03/14 07:14:54;;;;;;;16.13;12.93;;;;;;;12.17;25.41;101808.94;5057958;28;20283;-67
2022/03/14 07:17:20;;;;;;;13.67;12.23;;;;;;;11.26;26.86;101817.34;5057908;28;20174;-66
2022/03/14 07:19:46;;;;;;;15.30;12.60;;;;;;;11.53;26.73;101818.81;5058669;28;20553;-66
2022/03/14 07:22:19;;;;;;;14.77;13.33;;;;;;;11.60;26.23;101813.78;5057769;28;20173;-66
2022/03/14 07:24:45;;;;;;;11.53;8.10;;;;;;;15.38;42.71;101807.19;5057952;28;20408;-56
2022/03/14 07:27:11;;;;;;;13.60;12.20;;;;;;;13.10;24.71;101808.88;5058469;28;20502;-70
2022/03/14 07:29:37;;;;;;;16.10;13.30;;;;;;;11.91;26.56;101827.53;5057745;28;20382;-70
2022/03/14 07:32:02;;;;;;;13.60;12.20;;;;;;;10.39;28.10;101828.16;5057871;28;20441;-70
2022/03/14 07:34:31;;;;;;;14.20;12.70;;;;;;;10.44;27.62;101831.78;5058412;28;20575;-71
2022/03/14 07:36:56;;;;;;;15.53;12.17;;;;;;;10.54;27.79;101830.31;5057830;28;20196;-71
2022/03/14 07:39:21;;;;;;;13.60;12.20;;;;;;;11.01;26.93;101824.56;5057723;28;20771;-71
2022/03/14 07:41:46;;;;;;;15.17;12.83;;;;;;;11.57;26.71;101824.16;5058570;28;20166;-70
2022/03/14 07:44:12;;;;;;;14.57;13.07;;;;;;;11.59;26.90;101819.84;5057954;28;20224;-71
2022/03/14 07:46:37;;;;;;;15.23;13.63;;;;;;;11.88;26.00;101831.78;5057828;28;20172;-70
2022/03/14 07:49:03;;;;;;;18.30;13.50;;;;;;;10.31;28.06;101845.28;5058084;28;20166;-70
2022/03/14 07:51:28;;;;;;;18.20;13.53;;;;;;;12.04;26.04;101828.72;5057640;28;20174;-70
2022/03/14 07:53:54;;;;;;;14.70;12.70;;;;;;;12.58;24.98;101824.56;5058696;28;20469;-71
2022/03/14 07:56:19;;;;;;;15.23;13.20;;;;;;;12.42;24.99;101831.22;5062154;28;20162;-72
2022/03/14 07:58:44;;;;;;;16.23;13.57;;;;;;;13.28;24.64;101820.50;5061483;28;20532;-69
2022/03/14 08:01:10;;;;;;;14.87;12.90;;;;;;;12.21;25.29;101836.91;5061598;28;20434;-68
2022/03/14 08:03:35;;;;;;;15.00;13.40;;;;;;;13.04;24.92;101831.44;5061944;28;20208;-68
2022/03/14 08:06:02;;;;;;;22.40;13.43;;;;;;;13.53;24.71;101832.28;5060438;28;20209;-69
2022/03/14 08:08:27;;;;;;;15.40;13.50;;;;;;;12.99;24.58;101834.00;5061265;28;20484;-69
2022/03/14 08:10:54;;;;;;;14.47;13.07;;;;;;;12.60;25.29;101845.50;5061653;28;20390;-70
2022/03/14 08:13:20;;;;;;;14.60;13.20;;;;;;;11.43;26.39;101855.19;5060325;28;20169;-69
2022/03/14 08:15:46;;;;;;;14.40;12.90;;;;;;;11.45;26.43;101855.22;5061572;28;20383;-69
2022/03/14 08:18:13;;;;;;;17.87;13.13;;;;;;;11.50;26.16;101856.22;5061641;28;20502;-69
2022/03/14 08:20:38;;;;;;;20.20;14.20;;;;;;;11.74;27.11;101865.47;5061259;28;20197;-68
2022/03/14 08:23:04;;;;;;;15.73;13.50;;;;;;;11.01;27.89;101865.44;5060868;28;20809;-69
2022/03/14 08:25:30;;;;;;;17.53;14.70;;;;;;;11.86;27.68;101868.34;5061683;28;20162;-69
2022/03/14 08:27:56;;;;;;;15.00;13.40;;;;;;;12.21;26.26;101868.28;5060937;28;20258;-70
2022/03/14 08:30:21;;;;;;;16.83;13.67;;;;;;;11.00;27.45;101869.78;5061059;28;20805;-70
2022/03/14 08:32:47;;;;;;;18.40;14.57;;;;;;;12.42;26.20;101862.59;5061299;28;20405;-69
2022/03/14 08:35:16;;;;;;;15.73;13.67;;;;;;;13.74;25.35;101862.28;5060887;28;20468;-69
2022/03/14 08:37:43;;;;;;;14.90;13.50;;;;;;;13.37;25.31;101853.84;5059937;28;20166;-69
2022/03/14 08:40:11;;;;;;;15.37;13.77;;;;;;;13.37;25.87;101853.84;5061078;28;20450;-69
2022/03/14 08:42:37;;;;;;;19.80;13.57;;;;;;;12.32;26.10;101870.22;5060777;28;20386;-69
2022/03/14 08:45:03;;;;;;;14.70;13.30;;;;;;;13.30;25.41;101871.16;5060780;28;20408;-70
2022/03/14 08:47:29;;;;;;;15.17;13.43;;;;;;;13.92;24.41;101872.13;5061164;28;20413;-71
2022/03/14 08:49:54;;;;;;;16.93;14.23;;;;;;;13.90;24.34;101866.88;5060652;28;20414;-70
2022/03/14 08:52:19;;;;;;;14.80;13.40;;;;;;;13.43;24.50;101867.03;5060637;28;20173;-69
2022/03/14 08:54:45;;;;;;;15.10;13.50;;;;;;;12.75;25.66;101886.78;5060816;28;20267;-69
2022/03/14 08:57:10;;;;;;;16.10;13.10;;;;;;;13.26;25.26;101880.72;5059917;28;20477;-68
2022/03/14 08:59:36;;;;;;;19.37;13.33;;;;;;;13.82;24.68;101884.22;5060777;28;20452;-69
2022/03/14 09:02:01;;;;;;;15.67;13.70;;;;;;;13.69;24.92;101885.78;5060873;28;20217;-68
2022/03/14 09:04:26;;;;;;;14.63;13.30;;;;;;;14.14;24.31;101883.81;5059423;28;20173;-69
2022/03/14 09:06:52;;;;;;;20.10;14.63;;;;;;;13.41;25.73;101885.34;5058992;28;20424;-68
2022/03/14 09:09:18;;;;;;;15.37;13.77;;;;;;;13.38;25.03;101893.19;5059803;28;20527;-68
2022/03/14 09:11:44;;;;;;;14.57;13.07;;;;;;;13.19;25.28;101888.44;5060334;28;20173;-67
2022/03/14 09:14:10;;;;;;;14.93;13.33;;;;;;;12.71;25.71;101896.28;5059409;28;20737;-68
2022/03/14 09:16:35;;;;;;;15.00;13.50;;;;;;;11.91;27.19;101899.81;5060544;28;20383;-67
2022/03/14 09:19:01;;;;;;;15.50;13.47;;;;;;;12.14;27.19;101897.75;5059848;28;20486;-67
2022/03/14 09:21:27;;;;;;;15.17;13.53;;;;;;;13.55;24.99;101895.19;5060035;28;20204;-67
2022/03/14 09:23:52;;;;;;;15.20;13.60;;;;;;;13.21;25.63;101890.22;5059916;28;20447;-68
2022/03/14 09:26:17;;;;;;;15.40;13.60;;;;;;;14.47;24.27;101892.97;5059857;28;20389;-67
2022/03/14 09:28:44;;;;;;;15.27;13.67;;;;;;;15.14;23.93;101892.84;5060188;28;20613;-67
2022/03/14 09:31:13;;;;;;;14.77;13.37;;;;;;;15.82;22.96;101892.50;5059076;28;20162;-68
2022/03/14 09:33:39;;;;;;;15.83;13.33;;;;;;;16.80;21.82;101885.91;5059512;28;20429;-68
2022/03/14 09:36:04;;;;;;;18.80;13.20;;;;;;;16.90;21.86;101895.63;5059989;28;20412;-69
2022/03/14 09:38:30;;;;;;;15.70;14.10;;;;;;;15.89;22.91;101894.31;5059330;28;20181;-68
2022/03/14 09:40:56;;;;;;;15.90;14.27;;;;;;;15.87;22.99;101898.69;5059381;28;20192;-69
2022/03/14 09:43:23;;;;;;;14.77;12.70;;;;;;;14.67;24.32;101893.22;5059972;28;20244;-69
2022/03/14 09:45:48;;;;;;;16.60;13.87;;;;;;;15.73;23.61;101895.03;5059518;28;20173;-69
2022/03/14 09:48:14;;;;;;;15.33;13.67;;;;;;;15.75;23.73;101891.56;5058575;28;20420;-69
2022/03/14 09:50:41;;;;;;;14.67;13.17;;;;;;;14.31;25.65;101902.38;5058845;28;20225;-70
2022/03/14 09:53:08;;;;;;;14.50;13.00;;;;;;;13.96;26.43;101902.78;5059614;28;20821;-69
2022/03/14 09:55:40;;;;;;;14.80;13.23;;;;;;;14.35;26.56;101903.31;5059158;28;20463;-67
2022/03/14 09:58:07;;;;;;;14.87;13.47;;;;;;;13.23;27.42;101912.09;5059119;28;20477;-69
2022/03/14 10:00:32;;;;;;;15.67;13.93;;;;;;;12.37;29.39;101916.53;5058032;28;20402;-66
2022/03/14 10:02:58;;;;;;;16.60;13.80;;;;;;;12.21;29.67;101927.53;5059178;28;20404;-68
2022/03/14 10:05:26;;;;;;;18.17;14.03;;;;;;;12.20;30.07;101923.13;5059520;28;20431;-67
2022/03/14 10:07:51;;;;;;;21.53;13.60;;;;;;;12.40;30.18;101921.84;5058821;28;20209;-70
2022/03/14 10:10:17;;;;;;;16.70;14.53;;;;;;;12.84;29.20;101914.84;5059378;28;20483;-69
2022/03/14 10:12:44;;;;;;;17.77;15.00;;;;;;;12.36;29.99;101913.91;5058957;28;20173;-67
2022/03/14 10:15:10;;;;;;;15.93;14.00;;;;;;;12.08;30.43;101915.91;5058746;28;20205;-67
2022/03/14 10:17:35;;;;;;;14.80;13.20;;;;;;;12.34;30.88;101921.72;5058719;28;20681;-68
2022/03/14 10:20:03;;;;;;;15.90;13.23;;;;;;;11.85;33.57;101918.84;5058968;28;20177;-66
2022/03/14 10:22:36;;;;;;;15.20;13.60;;;;;;;11.78;33.80;101923.06;5058666;28;20591;-66
2022/03/14 10:25:10;;;;;;;15.80;13.00;;;;;;;11.91;33.52;101919.00;5058815;28;20416;-68
2022/03/14 10:27:37;;;;;;;17.13;13.30;;;;;;;11.66;34.72;101922.75;5058473;28;20412;-68
2022/03/14 10:30:05;;;;;;;14.47;12.80;;;;;;;12.26;34.45;101923.28;5058071;28;20424;-68
2022/03/14 10:32:30;;;;;;;15.27;12.30;;;;;;;11.56;37.29;101931.22;5058614;28;20569;-68
2022/03/14 10:35:05;;;;;;;14.10;12.60;;;;;;;11.98;35.68;101933.13;5059064;28;20944;-68
2022/03/14 10:37:32;;;;;;;14.87;13.03;;;;;;;11.92;36.14;101932.94;5058401;28;20173;-68
2022/03/14 10:40:08;;;;;;;15.03;13.37;;;;;;;11.95;35.99;101938.28;5058282;28;20431;-68
2022/03/14 10:42:41;;;;;;;14.60;12.60;;;;;;;11.61;38.18;101938.31;5058375;28;20443;-68
2022/03/14 10:45:11;;;;;;;19.87;13.50;;;;;;;11.53;37.74;101944.16;5058511;28;20451;-68
2022/03/14 10:47:37;;;;;;;22.43;14.93;;;;;;;11.58;36.97;101948.69;5058712;28;20916;-70
2022/03/14 10:50:03;;;;;;;14.73;12.90;;;;;;;12.06;36.44;101947.25;5058257;28;20387;-68
2022/03/14 10:52:28;;;;;;;14.90;13.30;;;;;;;12.34;37.05;101941.72;5058557;28;20412;-66
2022/03/14 10:54:55;;;;;;;14.20;12.80;;;;;;;11.93;38.55;101946.06;5057960;28;20201;-68
2022/03/14 10:57:29;;;;;;;14.47;12.97;;;;;;;11.68;38.50;101952.41;5057987;28;20201;-68
2022/03/14 10:59:56;;;;;;;14.80;12.87;;;;;;;11.98;38.16;101948.78;5057005;28;20461;-67
2022/03/14 11:02:26;;;;;;;13.47;12.07;;;;;;;11.99;38.40;101947.94;5057441;28;20665;-66
2022/03/14 11:04:52;;;;;;;17.70;13.70;;;;;;;12.17;37.59;101954.44;5057994;28;20781;-66
2022/03/14 11:07:19;;;;;;;18.63;13.73;;;;;;;11.85;38.39;101957.16;5040580;28;20733;-65
2022/03/14 11:09:49;;;;;;;14.63;13.07;;;;;;;11.80;38.96;101962.28;5057956;28;20442;-67
2022/03/14 11:12:19;;;;;;;16.57;13.60;;;;;;;12.04;39.21;101951.56;5058162;28;20386;-68